Archival Weather

Salzburg

Salzburg, Austria (LOWS)

Report from: Friday, May 26, 2023 11:50 AM CEST
Current time: Sunday, July 14, 2024 2:46 AM CEST

Current weather – Weather history – Daily summaries
Weather forecast

Temperature20.0°C (68.0°F)
Dew point15.0°C (59.0°F)
Winds 6 kts (3.1 m/s, 6.9 mph) Vrb
Winds variableWinds variable
Visibility6.2 mi. (10 km)
Clouds Few clouds 3,000 ft. (914 m)
Altimeter30.21 in.Hg (1023 mB)
Relative humidity73 %
Density altitude493 ft. (150 m)
Remarks No significant changes expected in the next two hours
Flight conditions Visual Meteorological Conditions
Raw dataLOWS 260950Z VRB06KT 9999 FEW030 20/15 Q1023 NOSIG
An error has occurred. This application may no longer respond until reloaded. Reload 🗙